Time;durP1;ratioP1;P1;durP2;ratioP2;P2;SDS_P1;SDS_P2;PMS_P1;PMS_P2;Temp;Humidity;BMP_temperature;BMP_pressure;BME280_temperature;BME280_humidity;BME280_pressure;Samples;Min_cycle;Max_cycle;Signal;HPM_P1;HPM_P2
2021/03/27 00:00:20;;;;;;;12.60;9.37;;;11.70;98.30;;;;;;5198541;22;20461;-80
2021/03/27 00:02:25;;;;;;;15.13;10.50;;;11.70;98.30;;;;;;5200977;22;20446;-80
2021/03/27 00:04:37;;;;;;;11.20;10.00;;;11.70;98.30;;;;;;5210842;22;20465;-80
2021/03/27 00:06:43;;;;;;;13.70;10.37;;;11.70;98.30;;;;;;5202322;22;21227;-81
2021/03/27 00:08:52;;;;;;;14.47;10.40;;;11.60;98.30;;;;;;5209710;22;21322;-80
2021/03/27 00:10:58;;;;;;;14.77;10.73;;;11.70;98.30;;;;;;5210244;22;20473;-80
2021/03/27 00:13:25;;;;;;;15.30;10.57;;;11.60;98.30;;;;;;5202958;22;20437;-80
2021/03/27 00:15:32;;;;;;;12.10;10.13;;;11.50;98.30;;;;;;5210806;22;20491;-80
2021/03/27 00:17:41;;;;;;;13.40;10.60;;;11.50;98.30;;;;;;5209892;22;20823;-81
2021/03/27 00:19:46;;;;;;;13.67;11.00;;;11.50;98.30;;;;;;5199441;22;20457;-81
2021/03/27 00:21:51;;;;;;;16.10;11.00;;;11.30;98.30;;;;;;5202197;22;20442;-81
2021/03/27 00:23:56;;;;;;;12.53;10.53;;;11.20;98.30;;;;;;5200744;22;21160;-81
2021/03/27 00:26:01;;;;;;;15.20;11.00;;;11.20;98.30;;;;;;5201485;22;20450;-81
2021/03/27 00:28:10;;;;;;;12.57;10.10;;;11.20;98.30;;;;;;5202565;22;20927;-81
2021/03/27 00:30:16;;;;;;;13.50;11.70;;;11.10;98.30;;;;;;5200253;22;20450;-81
2021/03/27 00:32:22;;;;;;;12.67;10.53;;;11.10;98.30;;;;;;5206916;22;20438;-80
2021/03/27 00:34:30;;;;;;;13.73;12.23;;;11.10;98.30;;;;;;5200582;22;20465;-81
2021/03/27 00:36:36;;;;;;;14.37;10.83;;;11.10;98.30;;;;;;5200917;22;20526;-81
2021/03/27 00:38:41;;;;;;;13.83;10.63;;;11.10;98.30;;;;;;5199694;22;20446;-81
2021/03/27 00:40:46;;;;;;;16.00;10.73;;;11.00;98.30;;;;;;5208887;22;20515;-80
2021/03/27 00:42:56;;;;;;;12.60;10.77;;;11.00;98.30;;;;;;5201309;22;20522;-81
2021/03/27 00:45:04;;;;;;;11.77;10.30;;;10.90;98.30;;;;;;5202663;22;20498;-81
2021/03/27 00:47:26;;;;;;;12.00;9.93;;;10.90;98.30;;;;;;5202989;22;20447;-81
2021/03/27 00:49:34;;;;;;;16.07;10.17;;;10.90;98.30;;;;;;5203174;22;20469;-80
2021/03/27 00:51:39;;;;;;;13.57;11.03;;;10.70;98.30;;;;;;5204333;22;20959;-81
2021/03/27 00:53:45;;;;;;;12.80;11.17;;;10.70;98.30;;;;;;5204208;22;20956;-81
2021/03/27 00:55:51;;;;;;;13.67;11.13;;;10.70;98.30;;;;;;5204355;22;20502;-80
2021/03/27 00:57:57;;;;;;;13.73;11.13;;;10.70;98.30;;;;;;5204081;22;20489;-80
2021/03/27 01:00:07;;;;;;;15.83;11.33;;;10.60;98.30;;;;;;5202687;22;20464;-80
2021/03/27 01:02:13;;;;;;;14.17;10.23;;;10.60;98.30;;;;;;5204665;22;20508;-80
2021/03/27 01:04:18;;;;;;;19.60;11.10;;;10.60;98.30;;;;;;5205240;22;20516;-81
2021/03/27 01:06:29;;;;;;;15.20;11.10;;;10.50;98.30;;;;;;5204461;22;20537;-80
2021/03/27 01:08:32;;;;;;;13.60;11.47;;;10.50;98.30;;;;;;5215488;22;20980;-80
2021/03/27 01:10:39;;;;;;;14.90;11.77;;;10.50;98.30;;;;;;5206239;22;20451;-80
2021/03/27 01:12:43;;;;;;;16.40;11.60;;;10.40;98.30;;;;;;5205872;22;20514;-80
2021/03/27 01:14:49;;;;;;;20.67;12.00;;;10.40;98.30;;;;;;5207898;22;20438;-81
2021/03/27 01:16:54;;;;;;;14.93;11.00;;;10.30;98.30;;;;;;5206538;22;20457;-80
2021/03/27 01:19:00;;;;;;;13.47;10.37;;;10.40;98.30;;;;;;5207217;22;20446;-80
2021/03/27 01:21:05;;;;;;;14.80;11.30;;;10.40;98.30;;;;;;5207987;22;20446;-81
2021/03/27 01:23:09;;;;;;;11.30;9.90;;;10.40;98.30;;;;;;5207988;22;20476;-80
2021/03/27 01:25:12;;;;;;;16.08;12.98;;;10.30;98.30;;;;;;5206920;22;20434;-80
2021/03/27 01:27:24;;;;;;;15.60;11.67;;;10.40;98.30;;;;;;5204984;22;20210;-80
2021/03/27 01:29:30;;;;;;;13.70;10.73;;;10.40;98.30;;;;;;5213483;22;20797;-80
2021/03/27 01:31:39;;;;;;;17.53;12.10;;;10.30;98.30;;;;;;5205827;22;20526;-80
2021/03/27 01:33:54;;;;;;;16.20;11.50;;;10.30;98.30;;;;;;5200192;22;20442;-80
2021/03/27 01:36:05;;;;;;;14.27;10.97;;;10.30;98.30;;;;;;5201140;22;20454;-80
2021/03/27 01:38:12;;;;;;;12.47;11.17;;;10.30;98.30;;;;;;5201608;22;20450;-80
2021/03/27 01:40:27;;;;;;;18.80;11.37;;;10.20;98.30;;;;;;5201248;22;20759;-81
2021/03/27 01:42:39;;;;;;;14.60;10.10;;;10.20;98.30;;;;;;5201378;22;20553;-80
2021/03/27 01:45:14;;;;;;;14.70;11.30;;;10.20;98.30;;;;;;5201091;22;21001;-80
2021/03/27 01:47:26;;;;;;;12.87;10.30;;;10.20;98.30;;;;;;5197227;22;20443;-80
2021/03/27 01:49:44;;;;;;;15.00;10.50;;;10.20;98.30;;;;;;5144262;22;20511;-80
2021/03/27 01:52:16;;;;;;;14.77;10.80;;;10.20;98.30;;;;;;5063025;23;20447;-80
2021/03/27 01:54:22;;;;;;;12.87;10.93;;;10.10;98.30;;;;;;5063914;23;20456;-80
2021/03/27 01:56:45;;;;;;;16.03;10.23;;;10.10;98.30;;;;;;5063839;23;20824;-80
2021/03/27 01:58:53;;;;;;;15.80;10.67;;;10.00;98.30;;;;;;5064042;23;20452;-81
2021/03/27 02:01:17;;;;;;;16.50;10.90;;;10.00;98.30;;;;;;5063956;23;20459;-80
2021/03/27 02:03:25;;;;;;;14.87;10.87;;;10.10;98.30;;;;;;5070942;23;20525;-80
2021/03/27 02:05:32;;;;;;;16.73;11.87;;;10.00;98.30;;;;;;5064260;23;20536;-80
2021/03/27 02:07:43;;;;;;;15.10;10.57;;;10.10;98.30;;;;;;5072903;23;21200;-80
2021/03/27 02:09:54;;;;;;;13.43;10.80;;;10.00;98.30;;;;;;5073681;23;20490;-80
2021/03/27 02:12:07;;;;;;;16.60;10.20;;;9.90;98.30;;;;;;5073228;23;20422;-80
2021/03/27 02:14:17;;;;;;;13.70;11.10;;;9.90;98.30;;;;;;5065616;23;20460;-80
2021/03/27 02:16:28;;;;;;;12.93;9.80;;;9.70;98.30;;;;;;5065461;23;20462;-80
2021/03/27 02:18:36;;;;;;;15.00;11.23;;;9.80;98.30;;;;;;5064178;23;20786;-80
2021/03/27 02:21:04;;;;;;;10.10;8.83;;;9.80;98.30;;;;;;5064045;23;20938;-83
2021/03/27 02:23:15;;;;;;;12.40;10.20;;;9.70;98.30;;;;;;5070981;23;20478;-80
2021/03/27 02:25:52;;;;;;;15.90;11.13;;;9.70;98.30;;;;;;5072210;23;21040;-83
2021/03/27 02:28:05;;;;;;;14.83;11.97;;;9.80;98.30;;;;;;5063199;23;20950;-83
2021/03/27 02:30:20;;;;;;;13.40;10.10;;;9.80;98.30;;;;;;5063172;23;20458;-82
2021/03/27 02:32:29;;;;;;;12.37;9.43;;;9.80;98.30;;;;;;5071806;23;20953;-83
2021/03/27 02:34:39;;;;;;;13.20;10.70;;;9.70;98.30;;;;;;5071745;23;21000;-80
2021/03/27 02:36:49;;;;;;;13.00;10.37;;;9.80;98.30;;;;;;5072606;23;20810;-81
2021/03/27 02:38:56;;;;;;;13.83;9.73;;;9.80;98.30;;;;;;5063840;23;20455;-80
2021/03/27 02:41:08;;;;;;;12.33;9.90;;;9.80;98.30;;;;;;5064649;23;20458;-80
2021/03/27 02:43:16;;;;;;;13.50;10.20;;;9.60;98.30;;;;;;5063730;23;20452;-80
2021/03/27 02:45:24;;;;;;;16.50;11.13;;;9.60;98.30;;;;;;5063571;23;20451;-80
2021/03/27 02:47:37;;;;;;;12.43;9.37;;;9.60;98.30;;;;;;5071579;23;20463;-80
2021/03/27 02:49:50;;;;;;;14.23;10.13;;;9.70;98.30;;;;;;5071169;23;20464;-80
2021/03/27 02:51:59;;;;;;;13.53;10.80;;;9.70;98.30;;;;;;5063705;23;20968;-80
2021/03/27 02:54:18;;;;;;;13.30;9.20;;;9.70;98.30;;;;;;5072216;23;20448;-80
2021/03/27 02:56:28;;;;;;;13.20;10.30;;;9.60;98.30;;;;;;5071902;23;20458;-80
2021/03/27 02:58:34;;;;;;;13.90;10.13;;;9.70;98.30;;;;;;5063768;23;20438;-81
2021/03/27 03:00:45;;;;;;;14.27;10.47;;;9.70;98.30;;;;;;5064096;23;20463;-82
2021/03/27 03:02:52;;;;;;;14.77;10.33;;;9.70;98.30;;;;;;5064139;23;20437;-80
2021/03/27 03:05:01;;;;;;;12.70;10.37;;;9.80;98.30;;;;;;5072089;23;20456;-81
2021/03/27 03:07:10;;;;;;;11.70;9.77;;;9.70;98.30;;;;;;5064038;23;20546;-80
2021/03/27 03:09:17;;;;;;;13.53;10.70;;;9.70;98.30;;;;;;5062938;23;20469;-80
2021/03/27 03:11:26;;;;;;;11.83;9.63;;;9.70;98.30;;;;;;5064093;23;21018;-80
2021/03/27 03:13:33;;;;;;;13.67;12.30;;;9.80;98.30;;;;;;5071782;23;20461;-80
2021/03/27 03:15:43;;;;;;;13.60;9.93;;;9.90;98.30;;;;;;5064632;23;20522;-80
2021/03/27 03:17:52;;;;;;;15.23;10.23;;;9.90;98.30;;;;;;5064154;23;20464;-80
2021/03/27 03:19:58;;;;;;;12.20;9.30;;;10.00;98.30;;;;;;5072125;23;20452;-80
2021/03/27 03:22:09;;;;;;;12.40;9.73;;;10.00;98.30;;;;;;5072877;23;20462;-80
2021/03/27 03:24:17;;;;;;;12.67;9.43;;;10.10;98.30;;;;;;5072875;23;20456;-80
2021/03/27 03:26:29;;;;;;;11.80;9.17;;;10.10;98.30;;;;;;5075541;23;20800;-80
2021/03/27 03:28:42;;;;;;;12.70;9.00;;;10.10;98.30;;;;;;5071430;23;20452;-80
2021/03/27 03:30:55;;;;;;;14.50;9.30;;;10.10;98.30;;;;;;5062922;23;20486;-80
2021/03/27 03:33:31;;;;;;;12.97;9.53;;;10.20;98.30;;;;;;5071791;23;20455;-80
2021/03/27 03:35:43;;;;;;;14.43;9.80;;;10.20;98.30;;;;;;5064158;23;20455;-79
2021/03/27 03:37:59;;;;;;;11.90;9.40;;;10.20;98.30;;;;;;5063161;23;20984;-80
2021/03/27 03:40:13;;;;;;;15.37;9.87;;;10.20;98.30;;;;;;5062733;23;20456;-80
2021/03/27 03:43:06;;;;;;;13.30;9.60;;;10.20;98.30;;;;;;5062610;23;20949;-80
2021/03/27 03:45:13;;;;;;;11.63;8.90;;;10.30;98.30;;;;;;5076423;23;21015;-80
2021/03/27 03:47:20;;;;;;;12.43;10.23;;;10.30;98.30;;;;;;5074724;23;20472;-80
2021/03/27 03:49:56;;;;;;;12.43;8.50;;;10.20;98.30;;;;;;5070932;23;20470;-80
2021/03/27 03:52:14;;;;;;;13.50;8.90;;;10.20;98.30;;;;;;5072078;23;20452;-80
2021/03/27 03:54:24;;;;;;;12.90;9.20;;;10.30;98.30;;;;;;5063693;23;20459;-80
2021/03/27 03:56:34;;;;;;;11.90;8.13;;;10.30;98.30;;;;;;5071553;23;20455;-80
2021/03/27 03:58:49;;;;;;;12.30;9.40;;;10.30;98.30;;;;;;5063834;23;20456;-81
2021/03/27 04:00:58;;;;;;;13.07;8.70;;;10.30;98.30;;;;;;5064499;23;20970;-81
2021/03/27 04:03:10;;;;;;;12.27;8.87;;;10.40;98.30;;;;;;5072826;23;20734;-80
2021/03/27 04:05:15;;;;;;;10.83;8.73;;;10.40;98.30;;;;;;5063997;23;20463;-80
2021/03/27 04:07:21;;;;;;;13.23;9.33;;;10.40;98.30;;;;;;5064898;23;20525;-80
2021/03/27 04:09:28;;;;;;;10.40;9.20;;;10.30;98.30;;;;;;5072562;23;20769;-80
2021/03/27 04:11:51;;;;;;;11.10;8.03;;;10.30;98.30;;;;;;5064824;23;20468;-80
2021/03/27 04:13:55;;;;;;;9.27;8.27;;;10.30;98.30;;;;;;5064350;23;20456;-80
2021/03/27 04:16:02;;;;;;;12.27;8.33;;;10.30;98.30;;;;;;5073089;23;20498;-80
2021/03/27 04:18:13;;;;;;;14.60;9.80;;;10.30;98.30;;;;;;5064916;23;20463;-80
2021/03/27 04:20:21;;;;;;;12.20;8.40;;;10.30;98.30;;;;;;5063708;23;20426;-80
2021/03/27 04:22:28;;;;;;;10.43;8.60;;;10.20;98.30;;;;;;5063343;23;20455;-80
2021/03/27 04:24:33;;;;;;;11.87;8.27;;;10.20;98.30;;;;;;5063649;23;20562;-80
2021/03/27 04:26:49;;;;;;;11.00;7.93;;;10.00;98.30;;;;;;5071797;23;20463;-79
2021/03/27 04:29:21;;;;;;;12.80;7.20;;;9.50;98.30;;;;;;5063593;23;20440;-80
2021/03/27 04:31:29;;;;;;;9.77;7.63;;;9.20;98.30;;;;;;5064563;23;20487;-79
2021/03/27 04:33:45;;;;;;;14.87;8.10;;;8.90;98.30;;;;;;5064929;23;20805;-80
2021/03/27 04:35:54;;;;;;;13.27;8.67;;;8.70;98.30;;;;;;5064984;23;20457;-80
2021/03/27 04:38:10;;;;;;;7.57;5.30;;;8.70;98.30;;;;;;5073064;23;20948;-80
2021/03/27 04:40:21;;;;;;;7.40;3.90;;;8.60;98.30;;;;;;5071807;23;20502;-80
2021/03/27 04:42:28;;;;;;;5.17;4.43;;;8.50;98.30;;;;;;5072891;23;20431;-80
2021/03/27 04:44:37;;;;;;;5.57;4.83;;;8.20;98.30;;;;;;5073396;23;20451;-80
2021/03/27 04:46:46;;;;;;;6.73;4.50;;;8.10;98.30;;;;;;5065066;23;20470;-80
2021/03/27 04:48:58;;;;;;;7.30;3.70;;;8.10;98.30;;;;;;5071882;23;20458;-80
2021/03/27 04:51:41;;;;;;;6.60;4.13;;;8.00;98.30;;;;;;5072334;23;20454;-80
2021/03/27 04:53:49;;;;;;;4.60;3.03;;;7.90;98.30;;;;;;5064041;23;20501;-80
2021/03/27 04:56:02;;;;;;;5.03;3.20;;;7.90;98.30;;;;;;5064548;23;20447;-80
2021/03/27 04:58:25;;;;;;;3.90;3.50;;;7.80;98.30;;;;;;5073262;23;20455;-80
2021/03/27 05:00:36;;;;;;;3.80;3.23;;;7.70;98.30;;;;;;5064654;23;20463;-80
2021/03/27 05:02:43;;;;;;;4.80;3.47;;;7.70;98.30;;;;;;5072274;23;20425;-80
2021/03/27 05:04:59;;;;;;;6.10;3.40;;;7.70;98.30;;;;;;5065090;23;20459;-80
2021/03/27 05:07:05;;;;;;;3.90;3.27;;;7.70;98.30;;;;;;5065572;23;20981;-80
2021/03/27 05:09:24;;;;;;;3.87;3.00;;;7.50;98.30;;;;;;5064656;23;20430;-80
2021/03/27 05:11:42;;;;;;;3.63;2.20;;;7.40;98.30;;;;;;5065485;23;20456;-80
2021/03/27 05:13:56;;;;;;;3.47;3.00;;;7.20;98.30;;;;;;5064939;23;20456;-79
2021/03/27 05:16:05;;;;;;;3.40;2.87;;;7.10;98.30;;;;;;5072807;23;20454;-80
2021/03/27 05:18:41;;;;;;;5.53;3.13;;;7.10;98.30;;;;;;5072678;23;21003;-79
2021/03/27 05:21:15;;;;;;;3.90;3.40;;;7.00;98.30;;;;;;5072352;23;20447;-80
2021/03/27 05:23:21;;;;;;;3.70;2.60;;;7.10;98.30;;;;;;5064118;23;20525;-80
2021/03/27 05:25:38;;;;;;;7.90;3.03;;;7.10;98.30;;;;;;5064707;23;20486;-80
2021/03/27 05:27:45;;;;;;;3.13;2.83;;;7.00;98.30;;;;;;5072435;23;20550;-80
2021/03/27 05:29:58;;;;;;;3.30;2.83;;;7.10;98.30;;;;;;5072200;23;20448;-80
2021/03/27 05:32:15;;;;;;;3.90;3.00;;;7.00;98.30;;;;;;5065729;23;20459;-80
2021/03/27 05:34:30;;;;;;;3.60;3.10;;;7.00;98.30;;;;;;5064823;23;20908;-80
2021/03/27 05:36:44;;;;;;;3.97;3.00;;;6.90;98.30;;;;;;5073554;23;20465;-80
2021/03/27 05:38:54;;;;;;;4.30;3.13;;;6.90;98.30;;;;;;5064417;23;20530;-80
2021/03/27 05:41:53;;;;;;;5.53;4.20;;;6.90;98.30;;;;;;5065987;23;20477;-80
2021/03/27 05:44:24;;;;;;;4.77;3.57;;;6.90;98.30;;;;;;5091478;23;20461;-80
2021/03/27 05:47:11;;;;;;;5.63;4.80;;;6.80;98.30;;;;;;5066787;23;20551;-79
2021/03/27 05:49:42;;;;;;;5.27;4.47;;;6.60;98.30;;;;;;5064969;23;20967;-83
2021/03/27 05:52:12;;;;;;;5.53;4.47;;;6.60;98.30;;;;;;5065751;23;20460;-83
2021/03/27 05:54:55;;;;;;;6.13;4.63;;;6.70;98.30;;;;;;5065471;23;20470;-82
2021/03/27 05:57:40;;;;;;;7.17;4.70;;;6.80;98.30;;;;;;5075391;23;20481;-83
2021/03/27 06:00:19;;;;;;;7.03;4.67;;;6.80;98.30;;;;;;5069021;23;20464;-82
2021/03/27 06:02:40;;;;;;;7.27;4.50;;;6.60;98.30;;;;;;5083436;23;20467;-82
2021/03/27 06:05:21;;;;;;;5.40;4.77;;;6.60;98.30;;;;;;5074172;23;20939;-82
2021/03/27 06:08:02;;;;;;;6.20;4.73;;;6.70;98.30;;;;;;5066652;23;20440;-82
2021/03/27 06:10:22;;;;;;;6.87;4.83;;;6.70;98.30;;;;;;5066420;23;20486;-82
2021/03/27 06:12:42;;;;;;;5.90;4.63;;;6.70;98.30;;;;;;5065658;23;20491;-82
2021/03/27 06:15:19;;;;;;;5.80;4.83;;;6.70;98.30;;;;;;5066923;23;20466;-82
2021/03/27 06:17:33;;;;;;;4.20;3.80;;;6.70;98.30;;;;;;5090827;23;20501;-82
2021/03/27 06:20:20;;;;;;;6.50;5.00;;;6.70;98.30;;;;;;5075311;23;20459;-82
2021/03/27 06:22:30;;;;;;;4.57;4.10;;;6.60;98.30;;;;;;5091132;23;20772;-82
2021/03/27 06:24:49;;;;;;;5.07;4.10;;;6.50;98.30;;;;;;5076426;23;21018;-82
2021/03/27 06:27:26;;;;;;;5.83;4.93;;;6.50;98.30;;;;;;5067714;23;20778;-82
2021/03/27 06:30:05;;;;;;;5.67;4.40;;;6.50;98.30;;;;;;5076415;23;20531;-82
2021/03/27 06:32:31;;;;;;;5.83;4.03;;;6.50;98.30;;;;;;5067344;23;20458;-82
2021/03/27 06:34:47;;;;;;;7.23;4.70;;;6.50;98.30;;;;;;5066918;23;20458;-84
2021/03/27 06:36:58;;;;;;;5.93;4.17;;;6.50;98.30;;;;;;5067558;23;20461;-82
2021/03/27 06:39:24;;;;;;;4.10;3.47;;;6.50;98.30;;;;;;5067174;23;20542;-82
2021/03/27 06:41:50;;;;;;;5.50;4.57;;;6.50;98.30;;;;;;5076799;23;20455;-83
2021/03/27 06:44:13;;;;;;;6.83;4.60;;;6.50;98.30;;;;;;5077498;23;20433;-83
2021/03/27 06:46:51;;;;;;;5.20;3.97;;;6.60;98.30;;;;;;5069094;23;20493;-83
2021/03/27 06:49:22;;;;;;;4.77;4.27;;;6.50;98.30;;;;;;5068436;23;20459;-83
2021/03/27 06:51:36;;;;;;;9.40;6.70;;;6.40;98.30;;;;;;5073611;23;20449;-82
2021/03/27 06:53:59;;;;;;;5.73;4.57;;;6.50;98.30;;;;;;5063004;23;20455;-82
2021/03/27 06:56:33;;;;;;;6.10;4.47;;;6.50;98.30;;;;;;5063949;23;20961;-82
2021/03/27 06:59:02;;;;;;;6.40;5.77;;;6.50;98.30;;;;;;5071397;23;20548;-83
2021/03/27 07:01:49;;;;;;;5.93;4.30;;;6.50;98.30;;;;;;5086200;23;20537;-82
2021/03/27 07:04:26;;;;;;;5.70;4.40;;;6.40;98.30;;;;;;5052841;23;20454;-82
2021/03/27 07:07:14;;;;;;;7.33;6.17;;;6.40;98.30;;;;;;5070872;23;20456;-82
2021/03/27 07:09:59;;;;;;;8.00;5.97;;;6.40;98.30;;;;;;5064122;23;20453;-83
2021/03/27 07:12:30;;;;;;;6.63;5.87;;;6.40;98.30;;;;;;5063659;23;20964;-83
2021/03/27 07:15:21;;;;;;;8.00;5.90;;;6.50;98.30;;;;;;5064325;23;20459;-82
2021/03/27 07:17:51;;;;;;;6.97;5.70;;;6.50;98.30;;;;;;5064568;23;21221;-82
2021/03/27 07:20:12;;;;;;;6.70;4.83;;;6.40;98.30;;;;;;5072699;23;20444;-82
2021/03/27 07:22:41;;;;;;;4.73;4.23;;;6.20;98.30;;;;;;5072107;23;20532;-82
2021/03/27 07:25:16;;;;;;;5.80;4.87;;;6.00;98.30;;;;;;5063424;23;20458;-82
2021/03/27 07:27:50;;;;;;;9.77;5.97;;;6.20;98.30;;;;;;5071352;23;20450;-81
2021/03/27 07:30:16;;;;;;;30.70;17.53;;;6.30;98.30;;;;;;5071023;23;20478;-82
2021/03/27 07:32:30;;;;;;;4.80;3.63;;;6.30;98.30;;;;;;5071946;23;20448;-81
2021/03/27 07:34:56;;;;;;;3.50;3.20;;;6.30;98.30;;;;;;5063963;23;20464;-82
2021/03/27 07:37:28;;;;;;;5.00;3.80;;;6.30;98.30;;;;;;5071617;23;20462;-82
2021/03/27 07:39:45;;;;;;;5.27;4.27;;;6.30;98.30;;;;;;5063443;23;20456;-82
2021/03/27 07:41:56;;;;;;;7.13;3.90;;;6.20;98.30;;;;;;5064161;23;20455;-82
2021/03/27 07:44:24;;;;;;;4.43;3.23;;;6.20;98.30;;;;;;5071959;23;20473;-83
2021/03/27 07:46:58;;;;;;;4.73;3.30;;;6.20;98.30;;;;;;5064378;23;20468;-83
2021/03/27 07:49:49;;;;;;;3.67;3.00;;;6.20;98.30;;;;;;5063423;23;20460;-82
2021/03/27 07:52:05;;;;;;;4.43;3.90;;;6.30;98.30;;;;;;5074260;23;20457;-82
2021/03/27 07:54:41;;;;;;;6.80;3.60;;;6.40;98.30;;;;;;5072143;23;20502;-82
2021/03/27 07:57:10;;;;;;;8.07;3.33;;;6.50;98.30;;;;;;5062150;23;20468;-82
2021/03/27 07:59:41;;;;;;;4.20;3.17;;;6.50;98.30;;;;;;5062697;23;20458;-82
2021/03/27 08:02:11;;;;;;;5.20;3.40;;;6.50;98.30;;;;;;5062997;23;20466;-82
2021/03/27 08:04:49;;;;;;;4.13;3.73;;;6.50;98.30;;;;;;5071751;23;20449;-82
2021/03/27 08:06:55;;;;;;;4.43;3.33;;;6.60;98.30;;;;;;5075149;23;20496;-83
2021/03/27 08:09:18;;;;;;;5.27;4.00;;;6.50;98.30;;;;;;5072116;23;21000;-82
2021/03/27 08:11:39;;;;;;;3.63;3.30;;;6.60;98.30;;;;;;5087290;23;20473;-82
2021/03/27 08:14:07;;;;;;;5.00;3.43;;;6.60;98.30;;;;;;5081351;23;20510;-82
2021/03/27 08:16:33;;;;;;;4.37;3.60;;;6.70;98.30;;;;;;5077244;23;20478;-82
2021/03/27 08:19:13;;;;;;;3.87;3.17;;;6.80;98.30;;;;;;5066610;23;20446;-82
2021/03/27 08:21:23;;;;;;;5.47;4.30;;;6.60;98.30;;;;;;5075056;23;20446;-82
2021/03/27 08:23:38;;;;;;;10.90;4.87;;;6.60;98.30;;;;;;5067333;23;20464;-82
2021/03/27 08:25:45;;;;;;;6.20;4.50;;;6.70;98.30;;;;;;5067767;23;20461;-82
2021/03/27 08:28:09;;;;;;;7.90;5.70;;;6.70;98.30;;;;;;5066501;23;20456;-82
2021/03/27 08:30:35;;;;;;;8.33;5.23;;;6.80;98.30;;;;;;5065038;23;20467;-82
2021/03/27 08:33:04;;;;;;;5.80;5.13;;;6.70;98.30;;;;;;5074169;23;20782;-82
2021/03/27 08:35:44;;;;;;;8.90;5.53;;;7.00;98.30;;;;;;5071920;23;20484;-82
2021/03/27 08:38:26;;;;;;;9.63;5.50;;;7.30;98.30;;;;;;5064735;23;20464;-82
2021/03/27 08:40:37;;;;;;;8.77;5.87;;;7.40;98.30;;;;;;5062549;23;20546;-82
2021/03/27 08:43:26;;;;;;;7.00;5.60;;;7.70;98.30;;;;;;5070521;23;20982;-82
2021/03/27 08:45:50;;;;;;;7.90;5.67;;;7.80;98.30;;;;;;5063365;23;20451;-82
2021/03/27 08:48:16;;;;;;;11.60;6.50;;;8.10;98.30;;;;;;5062552;23;21227;-82
2021/03/27 08:50:57;;;;;;;8.10;6.43;;;8.20;98.30;;;;;;5061225;23;20938;-83
2021/03/27 08:53:37;;;;;;;8.97;5.10;;;8.20;98.30;;;;;;5062371;23;20451;-81
2021/03/27 08:56:00;;;;;;;13.17;6.40;;;8.30;98.30;;;;;;5070710;23;20433;-82
2021/03/27 08:58:26;;;;;;;7.53;6.27;;;8.40;98.30;;;;;;5070185;23;20478;-82
2021/03/27 09:01:14;;;;;;;11.97;6.50;;;8.50;98.30;;;;;;5069716;23;20427;-82
2021/03/27 09:03:47;;;;;;;7.90;5.90;;;8.30;98.30;;;;;;5071763;23;20427;-82
2021/03/27 09:06:15;;;;;;;14.90;7.53;;;8.20;98.30;;;;;;5071812;23;20429;-84
2021/03/27 09:08:45;;;;;;;9.30;5.87;;;8.30;98.30;;;;;;5063254;23;20829;-83
2021/03/27 09:11:19;;;;;;;10.40;7.10;;;8.50;98.30;;;;;;5071468;23;20455;-83
2021/03/27 09:13:45;;;;;;;8.67;5.60;;;8.70;98.30;;;;;;5072603;23;20454;-82
2021/03/27 09:16:47;;;;;;;8.00;5.20;;;8.80;98.30;;;;;;5073638;23;20455;-82
2021/03/27 09:19:14;;;;;;;9.17;6.70;;;8.80;98.30;;;;;;5073472;23;20444;-82
2021/03/27 09:21:36;;;;;;;10.03;5.97;;;9.00;98.30;;;;;;5074856;23;20951;-82
2021/03/27 09:23:59;;;;;;;9.50;5.93;;;9.30;98.30;;;;;;5073973;23;20420;-81
2021/03/27 09:26:37;;;;;;;8.80;5.00;;;9.40;98.30;;;;;;5074338;23;21277;-81
2021/03/27 09:28:46;;;;;;;8.63;4.73;;;9.20;98.30;;;;;;5074464;23;20506;-81
2021/03/27 09:31:02;;;;;;;11.00;5.67;;;9.30;98.30;;;;;;5067652;23;20448;-81
2021/03/27 09:33:10;;;;;;;6.77;4.20;;;9.80;98.30;;;;;;5066307;23;20455;-82
2021/03/27 09:35:24;;;;;;;9.10;5.00;;;9.90;98.30;;;;;;5066773;23;20455;-82
2021/03/27 09:37:39;;;;;;;9.67;4.73;;;9.80;98.30;;;;;;5074198;23;20979;-83
2021/03/27 09:39:50;;;;;;;6.33;4.60;;;9.50;98.30;;;;;;5065543;23;20501;-82
2021/03/27 09:42:05;;;;;;;6.70;4.50;;;9.40;98.30;;;;;;5074413;23;20484;-82
2021/03/27 09:44:31;;;;;;;9.60;6.20;;;9.20;98.30;;;;;;5065159;23;20462;-82
2021/03/27 09:46:44;;;;;;;8.17;5.33;;;9.20;98.30;;;;;;5064912;23;20459;-82
2021/03/27 09:49:17;;;;;;;8.00;4.70;;;9.40;98.30;;;;;;5072772;23;20426;-82
2021/03/27 09:51:28;;;;;;;6.10;4.63;;;9.50;98.30;;;;;;5064748;23;20970;-81
2021/03/27 09:53:45;;;;;;;5.63;4.47;;;9.60;98.30;;;;;;5073017;23;20425;-82
2021/03/27 09:55:52;;;;;;;7.50;5.50;;;9.80;98.30;;;;;;5064685;23;20487;-82
2021/03/27 09:58:00;;;;;;;5.13;4.50;;;10.00;98.30;;;;;;5075555;23;20434;-82
2021/03/27 10:00:13;;;;;;;8.80;5.13;;;10.10;98.30;;;;;;5065914;23;20430;-82
2021/03/27 10:02:24;;;;;;;7.47;5.57;;;10.10;98.30;;;;;;5065566;23;20953;-82
2021/03/27 10:04:52;;;;;;;8.37;4.87;;;9.80;98.30;;;;;;5065702;23;20457;-82
2021/03/27 10:07:11;;;;;;;5.70;4.10;;;9.50;98.30;;;;;;5067140;23;20431;-82
2021/03/27 10:09:30;;;;;;;7.67;4.30;;;9.30;98.30;;;;;;5065214;23;20462;-81
2021/03/27 10:11:35;;;;;;;4.30;3.90;;;9.00;98.30;;;;;;5068354;23;20463;-81
2021/03/27 10:13:53;;;;;;;6.83;4.33;;;8.90;98.30;;;;;;5068819;23;20430;-82
2021/03/27 10:15:57;;;;;;;5.67;4.33;;;8.60;98.30;;;;;;5075516;23;20820;-82
2021/03/27 10:18:06;;;;;;;6.80;4.60;;;8.30;98.30;;;;;;5074323;23;20437;-82
2021/03/27 10:20:21;;;;;;;5.67;4.40;;;8.10;98.30;;;;;;5066775;23;20427;-82
2021/03/27 10:22:40;;;;;;;7.30;5.63;;;7.90;98.30;;;;;;5076250;23;20452;-82
2021/03/27 10:24:47;;;;;;;5.70;3.97;;;7.70;98.30;;;;;;5074591;23;20527;-82
2021/03/27 10:26:57;;;;;;;5.87;5.27;;;7.30;98.30;;;;;;5065674;23;20932;-82
2021/03/27 10:29:33;;;;;;;4.60;3.53;;;7.10;98.30;;;;;;5073976;23;20455;-85
2021/03/27 10:31:41;;;;;;;4.17;3.60;;;6.80;98.30;;;;;;5076429;23;20461;-82
2021/03/27 10:33:54;;;;;;;3.93;2.87;;;6.80;98.30;;;;;;5075756;23;20476;-84
2021/03/27 10:36:22;;;;;;;3.57;3.27;;;6.70;98.30;;;;;;5071450;23;21277;-83
2021/03/27 10:38:58;;;;;;;3.60;2.90;;;6.90;98.30;;;;;;5077183;23;20534;-82
2021/03/27 10:41:21;;;;;;;4.77;3.20;;;6.90;98.30;;;;;;5082863;23;20482;-82
2021/03/27 10:43:37;;;;;;;4.70;3.90;;;6.90;98.30;;;;;;5077308;23;20521;-83
2021/03/27 10:45:55;;;;;;;4.20;3.80;;;7.10;98.30;;;;;;5067296;23;20459;-83
2021/03/27 10:48:17;;;;;;;6.47;4.17;;;7.20;98.30;;;;;;5074568;23;20510;-81
2021/03/27 10:50:27;;;;;;;3.50;3.20;;;7.30;98.30;;;;;;5062043;23;20460;-81
2021/03/27 10:53:01;;;;;;;5.57;3.60;;;7.20;98.30;;;;;;5065492;23;20823;-81
2021/03/27 10:55:34;;;;;;;4.90;3.87;;;7.20;98.30;;;;;;5063709;23;20456;-82
2021/03/27 10:58:13;;;;;;;5.97;4.40;;;7.30;98.30;;;;;;5072003;23;20470;-81
2021/03/27 11:00:28;;;;;;;3.93;3.50;;;7.20;98.30;;;;;;5035987;23;20466;-81
2021/03/27 11:02:54;;;;;;;3.80;3.00;;;7.30;98.30;;;;;;5065942;23;20466;-81
2021/03/27 11:05:23;;;;;;;5.57;3.80;;;7.90;98.30;;;;;;5066141;23;20796;-82
2021/03/27 11:07:51;;;;;;;4.07;3.20;;;8.70;98.30;;;;;;5055270;23;20427;-81
2021/03/27 11:10:31;;;;;;;4.63;3.17;;;9.60;98.30;;;;;;5065071;23;20433;-81
2021/03/27 11:13:10;;;;;;;6.07;3.00;;;10.00;98.30;;;;;;5065644;23;20756;-83
2021/03/27 11:15:27;;;;;;;3.83;3.37;;;9.80;98.30;;;;;;5065378;23;20458;-82
2021/03/27 11:17:49;;;;;;;3.90;2.70;;;9.80;98.30;;;;;;5065182;23;20531;-82
2021/03/27 11:20:34;;;;;;;3.00;2.50;;;9.50;98.30;;;;;;5065637;23;21306;-82
2021/03/27 11:23:05;;;;;;;3.17;2.53;;;9.10;98.30;;;;;;5074669;23;20526;-82
2021/03/27 11:25:59;;;;;;;3.83;2.90;;;9.00;98.30;;;;;;5065997;23;20821;-81
2021/03/27 11:28:23;;;;;;;3.47;2.73;;;8.90;98.30;;;;;;5061458;23;20455;-82
2021/03/27 11:30:36;;;;;;;4.60;2.93;;;9.20;98.30;;;;;;5073352;23;20463;-82
2021/03/27 11:32:48;;;;;;;6.50;3.00;;;9.50;98.30;;;;;;5065330;23;21059;-82
2021/03/27 11:34:58;;;;;;;2.80;2.60;;;9.90;98.30;;;;;;5065970;23;20539;-82
2021/03/27 11:37:06;;;;;;;2.87;2.57;;;10.10;98.30;;;;;;5065043;23;20953;-82
2021/03/27 11:39:27;;;;;;;4.37;2.50;;;10.30;98.30;;;;;;5072419;23;20451;-83
2021/03/27 11:41:37;;;;;;;10.70;3.60;;;10.20;98.30;;;;;;5065062;23;20540;-82
2021/03/27 11:43:59;;;;;;;4.67;2.80;;;10.10;98.30;;;;;;5064746;23;20479;-82
2021/03/27 11:46:07;;;;;;;6.60;3.27;;;10.20;98.30;;;;;;5064535;23;20455;-82
2021/03/27 11:48:18;;;;;;;8.43;3.13;;;10.50;98.30;;;;;;5064162;23;20452;-82
2021/03/27 11:50:46;;;;;;;6.80;3.23;;;10.70;98.30;;;;;;5071042;23;20527;-83
2021/03/27 11:53:08;;;;;;;6.00;3.60;;;11.00;98.30;;;;;;5071817;23;20440;-83
2021/03/27 11:55:23;;;;;;;4.90;3.57;;;10.70;98.30;;;;;;5071292;23;20535;-83
2021/03/27 11:57:33;;;;;;;6.67;3.60;;;10.30;98.30;;;;;;5072337;23;21243;-82
2021/03/27 12:02:19;;;;;;;31.03;15.07;;;9.70;98.30;;;;;;5070850;23;20459;-83